Time;durP1;ratioP1;P1;durP2;ratioP2;P2;SDS_P1;SDS_P2;PMS_P1;PMS_P2;Temp;Humidity;BMP_temperature;BMP_pressure;BME280_temperature;BME280_humidity;BME280_pressure;Samples;Min_cycle;Max_cycle;Signal;HPM_P1;HPM_P2
2022/07/22 00:00:27;;;;;;;61.28;33.47;;;18.00;99.90;;;;;;5026220;28;20068;-71
2022/07/22 00:02:53;;;;;;;61.80;33.00;;;18.00;99.90;;;;;;5026896;28;20112;-71
2022/07/22 00:05:18;;;;;;;59.63;33.33;;;18.00;99.90;;;;;;5025236;28;20041;-71
2022/07/22 00:07:44;;;;;;;62.58;34.22;;;18.00;99.90;;;;;;5024145;28;20529;-71
2022/07/22 00:10:10;;;;;;;58.53;34.40;;;18.00;99.90;;;;;;5028418;28;20029;-71
2022/07/22 00:12:37;;;;;;;61.03;34.20;;;18.00;99.90;;;;;;5026937;28;20018;-71
2022/07/22 00:15:04;;;;;;;50.95;30.15;;;18.00;99.90;;;;;;5030452;28;20029;-71
2022/07/22 00:17:29;;;;;;;36.10;21.92;;;17.90;99.90;;;;;;5028105;28;20049;-71
2022/07/22 00:19:55;;;;;;;23.95;15.35;;;17.70;99.80;;;;;;5033614;28;20064;-71
2022/07/22 00:22:20;;;;;;;19.88;9.57;;;17.60;99.80;;;;;;5029915;28;20380;-71
2022/07/22 00:24:46;;;;;;;9.60;6.03;;;17.40;99.60;;;;;;5026708;28;20044;-71
2022/07/22 00:27:11;;;;;;;5.40;2.97;;;17.30;99.50;;;;;;5028495;28;20515;-71
2022/07/22 00:29:37;;;;;;;3.55;2.10;;;17.00;99.30;;;;;;5027341;28;20033;-71
2022/07/22 00:32:03;;;;;;;5.28;1.65;;;17.00;99.40;;;;;;5021126;28;20025;-71
2022/07/22 00:34:29;;;;;;;1.45;1.10;;;16.80;99.10;;;;;;5028988;28;20097;-71
2022/07/22 00:36:55;;;;;;;1.75;1.15;;;16.70;99.00;;;;;;5028347;28;20045;-71
2022/07/22 00:39:21;;;;;;;2.45;1.10;;;16.80;99.30;;;;;;5027748;28;20079;-71
2022/07/22 00:41:47;;;;;;;2.78;1.10;;;16.70;99.10;;;;;;5014754;28;20144;-71
2022/07/22 00:44:13;;;;;;;4.78;1.02;;;16.60;99.00;;;;;;5029271;28;20113;-71
2022/07/22 00:46:38;;;;;;;1.70;0.70;;;16.60;99.10;;;;;;5026893;28;20076;-71
2022/07/22 00:49:06;;;;;;;1.38;1.00;;;16.60;99.00;;;;;;5025613;28;20029;-71
2022/07/22 00:51:32;;;;;;;1.15;1.00;;;16.60;99.10;;;;;;5029246;28;20417;-71
2022/07/22 00:53:58;;;;;;;2.72;1.00;;;16.60;99.10;;;;;;5024315;28;20048;-71
2022/07/22 00:56:25;;;;;;;1.63;1.02;;;16.60;99.10;;;;;;5026722;28;20091;-71
2022/07/22 00:58:53;;;;;;;3.08;0.93;;;16.50;99.00;;;;;;5028274;28;20116;-71
2022/07/22 01:01:19;;;;;;;1.25;0.82;;;16.50;99.00;;;;;;5025939;28;20117;-71
2022/07/22 01:03:45;;;;;;;0.80;0.80;;;16.50;99.00;;;;;;5025965;28;20033;-71
2022/07/22 01:06:10;;;;;;;4.00;0.80;;;16.50;99.10;;;;;;5030632;28;20033;-71
2022/07/22 01:08:38;;;;;;;0.85;0.82;;;16.50;99.10;;;;;;5030137;28;20099;-71
2022/07/22 01:11:13;;;;;;;1.00;0.80;;;16.40;99.10;;;;;;5028884;28;20032;-71
2022/07/22 01:13:40;;;;;;;2.80;1.00;;;16.40;99.00;;;;;;5028820;28;20378;-71
2022/07/22 01:16:07;;;;;;;1.20;1.10;;;16.40;99.20;;;;;;5023653;28;20112;-71
2022/07/22 01:18:33;;;;;;;1.30;1.20;;;16.40;99.20;;;;;;5029809;28;20485;-71
2022/07/22 01:20:59;;;;;;;1.35;1.20;;;16.40;99.20;;;;;;5029786;28;20029;-71
2022/07/22 01:23:25;;;;;;;1.40;1.17;;;16.40;99.40;;;;;;5027150;28;20139;-71
2022/07/22 01:25:51;;;;;;;1.98;1.20;;;16.50;99.40;;;;;;5027017;28;20108;-71
2022/07/22 01:28:16;;;;;;;2.55;1.42;;;16.40;99.30;;;;;;5018178;28;20073;-71
2022/07/22 01:30:42;;;;;;;1.85;1.50;;;16.40;99.20;;;;;;5029438;28;20117;-71
2022/07/22 01:33:07;;;;;;;1.98;1.42;;;16.30;99.10;;;;;;5022639;28;20132;-71
2022/07/22 01:35:33;;;;;;;3.65;1.77;;;16.30;99.30;;;;;;5026803;28;20061;-71
2022/07/22 01:37:59;;;;;;;4.38;2.20;;;16.10;99.20;;;;;;5025436;28;20499;-71
2022/07/22 01:40:24;;;;;;;3.53;2.13;;;16.20;99.30;;;;;;5029173;28;20358;-71
2022/07/22 01:42:50;;;;;;;5.80;3.83;;;16.20;99.30;;;;;;5017788;28;20108;-71
2022/07/22 01:45:15;;;;;;;9.07;5.80;;;16.20;99.30;;;;;;5022946;28;20079;-71
2022/07/22 01:47:41;;;;;;;9.40;6.68;;;16.10;99.20;;;;;;5010895;28;20084;-71
2022/07/22 01:50:09;;;;;;;17.05;9.80;;;16.10;99.30;;;;;;5023852;28;20554;-71
2022/07/22 01:52:34;;;;;;;15.75;9.85;;;16.00;99.30;;;;;;5026875;28;20049;-71
2022/07/22 01:55:00;;;;;;;15.18;9.50;;;16.00;99.20;;;;;;5024655;28;20089;-71
2022/07/22 01:57:25;;;;;;;15.75;8.95;;;15.90;99.00;;;;;;5027017;28;20561;-71
2022/07/22 01:59:51;;;;;;;12.82;9.35;;;15.90;99.30;;;;;;5029086;28;20033;-71
2022/07/22 02:02:17;;;;;;;13.77;9.02;;;15.90;99.20;;;;;;5020639;28;20563;-71
2022/07/22 02:04:42;;;;;;;11.23;8.05;;;15.80;99.30;;;;;;5024086;28;20034;-71
2022/07/22 02:07:08;;;;;;;14.23;8.32;;;15.80;99.30;;;;;;5027511;28;20033;-71
2022/07/22 02:09:33;;;;;;;16.67;8.50;;;15.80;99.40;;;;;;5028738;28;20029;-70
2022/07/22 02:11:59;;;;;;;13.93;8.73;;;15.70;99.40;;;;;;5025033;28;20055;-70
2022/07/22 02:14:25;;;;;;;13.57;7.95;;;15.70;99.30;;;;;;5025047;28;20025;-70
2022/07/22 02:16:50;;;;;;;10.23;6.38;;;15.70;99.40;;;;;;5027550;28;20025;-70
2022/07/22 02:19:16;;;;;;;10.77;6.63;;;15.60;99.30;;;;;;5027791;28;20033;-70
2022/07/22 02:21:41;;;;;;;14.52;7.05;;;15.50;99.50;;;;;;5027884;28;20329;-70
2022/07/22 02:24:07;;;;;;;14.63;7.35;;;15.60;99.50;;;;;;5024876;28;20033;-70
2022/07/22 02:26:33;;;;;;;14.82;7.47;;;15.50;99.40;;;;;;5026690;28;20515;-70
2022/07/22 02:28:58;;;;;;;13.80;7.13;;;15.50;99.50;;;;;;5028552;28;20550;-70
2022/07/22 02:31:24;;;;;;;14.45;7.85;;;15.40;99.40;;;;;;5026094;28;20029;-70
2022/07/22 02:33:50;;;;;;;15.93;9.20;;;15.30;99.30;;;;;;5019724;28;20110;-70
2022/07/22 02:36:16;;;;;;;12.50;8.35;;;15.40;99.50;;;;;;5020193;28;20075;-70
2022/07/22 02:38:42;;;;;;;15.07;8.38;;;15.40;99.30;;;;;;5029084;28;20824;-70
2022/07/22 02:41:07;;;;;;;12.77;8.48;;;15.40;99.50;;;;;;5030821;28;20032;-70
2022/07/22 02:43:33;;;;;;;16.70;8.05;;;15.40;99.30;;;;;;5030829;28;20452;-70
2022/07/22 02:45:58;;;;;;;14.85;7.20;;;15.40;99.40;;;;;;5028780;28;20034;-70
2022/07/22 02:48:24;;;;;;;14.20;6.53;;;15.40;99.20;;;;;;5025171;28;20061;-70
2022/07/22 02:50:49;;;;;;;15.55;6.65;;;15.40;99.20;;;;;;5030927;28;20034;-70
2022/07/22 02:53:15;;;;;;;10.70;5.82;;;15.40;99.20;;;;;;5030764;28;20034;-70
2022/07/22 02:55:41;;;;;;;14.65;5.60;;;15.30;99.00;;;;;;5027436;28;20028;-70
2022/07/22 02:58:08;;;;;;;12.25;5.35;;;15.30;99.10;;;;;;5030801;28;20060;-70
2022/07/22 03:00:35;;;;;;;9.98;4.80;;;15.30;99.00;;;;;;5030656;28;20033;-70
2022/07/22 03:03:00;;;;;;;14.40;5.03;;;15.30;98.90;;;;;;5027774;28;20029;-70
2022/07/22 03:05:26;;;;;;;11.23;5.20;;;15.30;99.00;;;;;;5032730;28;20083;-70
2022/07/22 03:07:51;;;;;;;14.32;4.28;;;15.30;99.00;;;;;;5025245;28;20057;-70
2022/07/22 03:10:17;;;;;;;13.65;5.03;;;15.30;98.90;;;;;;5014950;28;20856;-70
2022/07/22 03:12:42;;;;;;;16.48;4.47;;;15.30;98.80;;;;;;5027532;28;20169;-70
2022/07/22 03:15:08;;;;;;;10.55;5.10;;;15.30;98.90;;;;;;5031802;28;20100;-70
2022/07/22 03:17:35;;;;;;;10.43;4.57;;;15.30;98.90;;;;;;5029762;28;20017;-70
2022/07/22 03:20:07;;;;;;;12.63;5.07;;;15.30;98.90;;;;;;5027255;28;20029;-70
2022/07/22 03:22:33;;;;;;;13.63;5.50;;;15.40;99.00;;;;;;5027982;28;20033;-70
2022/07/22 03:24:59;;;;;;;13.90;4.95;;;15.40;99.00;;;;;;5029434;28;20044;-70
2022/07/22 03:27:25;;;;;;;10.77;5.20;;;15.30;98.90;;;;;;5031742;28;20271;-70
2022/07/22 03:29:51;;;;;;;13.20;5.00;;;15.30;98.90;;;;;;5028021;28;20357;-70
2022/07/22 03:32:17;;;;;;;12.48;5.00;;;15.40;99.00;;;;;;5028546;28;20120;-70
2022/07/22 03:34:43;;;;;;;14.00;5.18;;;15.30;98.90;;;;;;5024331;28;20088;-70
2022/07/22 03:37:09;;;;;;;14.82;4.90;;;15.30;98.90;;;;;;5031487;28;20033;-70
2022/07/22 03:39:34;;;;;;;8.63;4.57;;;15.30;98.80;;;;;;5031928;28;20048;-70
2022/07/22 03:42:00;;;;;;;12.60;5.65;;;15.30;98.80;;;;;;5027982;28;20079;-70
2022/07/22 03:44:26;;;;;;;14.57;5.03;;;15.30;98.90;;;;;;5029788;28;20357;-70
2022/07/22 03:46:51;;;;;;;10.02;4.93;;;15.20;98.80;;;;;;5020647;28;20128;-70
2022/07/22 03:49:17;;;;;;;8.48;4.35;;;15.20;98.80;;;;;;5028118;28;20099;-70
2022/07/22 03:51:42;;;;;;;10.90;4.28;;;15.10;98.60;;;;;;5027077;28;20035;-70
2022/07/22 03:54:08;;;;;;;10.88;4.82;;;15.10;98.70;;;;;;5022999;28;20112;-70
2022/07/22 03:56:33;;;;;;;13.32;4.57;;;15.10;98.80;;;;;;5030039;28;20025;-70
2022/07/22 03:58:59;;;;;;;15.90;4.90;;;15.10;98.80;;;;;;5029544;28;20061;-70
2022/07/22 04:01:25;;;;;;;12.38;4.78;;;15.20;98.90;;;;;;5029690;28;20112;-70
2022/07/22 04:03:50;;;;;;;9.82;4.63;;;15.20;98.90;;;;;;5027327;28;20025;-70
2022/07/22 04:06:17;;;;;;;11.70;4.32;;;15.20;98.90;;;;;;5031198;28;20069;-70
2022/07/22 04:08:42;;;;;;;8.00;3.90;;;15.10;98.80;;;;;;5029943;28;20049;-70
2022/07/22 04:11:08;;;;;;;14.32;4.22;;;15.10;98.80;;;;;;5029184;28;20377;-70
2022/07/22 04:13:33;;;;;;;10.52;4.07;;;15.10;98.80;;;;;;5026829;28;20037;-70
2022/07/22 04:15:59;;;;;;;11.57;4.43;;;15.10;98.90;;;;;;5023767;28;20091;-70
2022/07/22 04:18:24;;;;;;;10.27;4.47;;;15.10;98.80;;;;;;5012166;28;20084;-70
2022/07/22 04:20:50;;;;;;;5.97;4.00;;;15.10;98.70;;;;;;5014827;28;20434;-70
2022/07/22 04:23:15;;;;;;;12.13;4.95;;;15.10;98.90;;;;;;5020979;28;20064;-69
2022/07/22 04:25:41;;;;;;;11.57;4.47;;;15.10;98.80;;;;;;5029696;28;20041;-70
2022/07/22 04:28:06;;;;;;;11.82;4.28;;;15.10;98.70;;;;;;5026477;28;20329;-67
2022/07/22 04:30:32;;;;;;;12.98;4.63;;;15.10;98.70;;;;;;5030868;28;20025;-69
2022/07/22 04:32:58;;;;;;;9.88;3.80;;;15.10;98.60;;;;;;5025939;28;20064;-69
2022/07/22 04:35:24;;;;;;;11.35;4.47;;;15.00;98.50;;;;;;5024507;28;20052;-69
2022/07/22 04:37:50;;;;;;;13.27;4.32;;;15.10;98.30;;;;;;5025675;28;20433;-69
2022/07/22 04:40:16;;;;;;;10.45;4.32;;;15.10;98.40;;;;;;5028447;28;20029;-69
2022/07/22 04:42:41;;;;;;;14.05;4.50;;;15.10;98.40;;;;;;5028812;28;20060;-69
2022/07/22 04:45:07;;;;;;;12.63;5.13;;;15.10;98.50;;;;;;5026743;28;20480;-69
2022/07/22 04:47:32;;;;;;;11.10;4.68;;;15.10;98.40;;;;;;5017611;28;20037;-69
2022/07/22 04:49:58;;;;;;;11.02;4.85;;;15.10;98.50;;;;;;5029148;28;20025;-69
2022/07/22 04:52:23;;;;;;;12.63;4.43;;;15.10;98.60;;;;;;5029101;28;20034;-69
2022/07/22 04:54:49;;;;;;;12.13;4.47;;;15.00;98.70;;;;;;5024052;28;20426;-69
2022/07/22 04:57:14;;;;;;;9.98;4.13;;;15.00;98.70;;;;;;5023472;28;20095;-69
2022/07/22 04:59:40;;;;;;;13.20;4.47;;;15.00;98.90;;;;;;5028464;28;20033;-69
2022/07/22 05:02:06;;;;;;;7.97;4.18;;;15.00;98.90;;;;;;5025883;28;20029;-69
2022/07/22 05:04:31;;;;;;;10.82;3.97;;;15.00;98.70;;;;;;5028476;28;20453;-69
2022/07/22 05:06:57;;;;;;;12.73;3.80;;;15.00;98.70;;;;;;5025006;28;20872;-69
2022/07/22 05:09:22;;;;;;;10.35;3.83;;;15.00;98.70;;;;;;5017753;28;20103;-69
2022/07/22 05:11:48;;;;;;;9.35;4.10;;;15.00;98.80;;;;;;5028705;28;20362;-69
2022/07/22 05:14:13;;;;;;;13.15;4.40;;;15.00;98.70;;;;;;5029372;28;20388;-69
2022/07/22 05:16:39;;;;;;;10.25;3.70;;;15.00;98.70;;;;;;5026466;28;20112;-69
2022/07/22 05:19:05;;;;;;;7.05;4.03;;;15.00;98.80;;;;;;5022356;28;20122;-69
2022/07/22 05:21:30;;;;;;;8.90;3.83;;;15.00;98.80;;;;;;5026841;28;20029;-69
2022/07/22 05:23:56;;;;;;;10.05;4.90;;;15.00;98.80;;;;;;5027848;28;20063;-69
2022/07/22 05:26:21;;;;;;;9.90;4.25;;;14.80;98.70;;;;;;5030142;28;20041;-69
2022/07/22 05:28:47;;;;;;;9.80;4.32;;;14.80;98.70;;;;;;5026755;28;20038;-69
2022/07/22 05:31:13;;;;;;;7.65;4.18;;;14.90;98.80;;;;;;5025570;28;20604;-69
2022/07/22 05:33:38;;;;;;;15.15;5.10;;;14.80;98.60;;;;;;5027476;28;20033;-69
2022/07/22 05:36:05;;;;;;;14.05;4.63;;;15.00;98.80;;;;;;5026195;28;20025;-69
2022/07/22 05:38:33;;;;;;;15.00;4.32;;;15.00;98.70;;;;;;5025959;28;20449;-69
2022/07/22 05:40:58;;;;;;;15.55;4.90;;;15.00;98.60;;;;;;5025872;28;20109;-69
2022/07/22 05:43:24;;;;;;;10.70;3.97;;;15.00;98.40;;;;;;5018140;28;20112;-69
2022/07/22 05:45:49;;;;;;;13.30;4.53;;;15.10;98.20;;;;;;5019154;28;20029;-69
2022/07/22 05:48:15;;;;;;;11.77;4.72;;;15.10;98.20;;;;;;5023264;28;20052;-69
2022/07/22 05:50:40;;;;;;;14.07;4.53;;;15.10;97.80;;;;;;5026491;28;20506;-69
2022/07/22 05:53:06;;;;;;;11.93;3.75;;;15.10;97.60;;;;;;5026963;28;20032;-69
2022/07/22 05:55:31;;;;;;;10.70;4.28;;;15.20;97.70;;;;;;5023849;28;20033;-69
2022/07/22 05:57:57;;;;;;;13.90;3.80;;;15.30;97.60;;;;;;5027407;28;20496;-69
2022/07/22 06:00:22;;;;;;;16.15;4.38;;;15.30;97.70;;;;;;5028831;28;20495;-69
2022/07/22 06:02:48;;;;;;;9.73;3.72;;;15.50;97.50;;;;;;5024918;28;20136;-69
2022/07/22 06:05:13;;;;;;;10.45;3.70;;;15.40;97.20;;;;;;5028370;28;20041;-69
2022/07/22 06:07:39;;;;;;;7.85;3.22;;;15.50;97.20;;;;;;5017624;28;20060;-69
2022/07/22 06:10:05;;;;;;;11.77;3.63;;;15.50;96.90;;;;;;5027851;28;20414;-69
2022/07/22 06:12:30;;;;;;;9.88;3.53;;;15.60;97.00;;;;;;5018574;28;20017;-69
2022/07/22 06:14:56;;;;;;;10.88;3.72;;;15.60;96.70;;;;;;5028052;28;20068;-69
2022/07/22 06:17:21;;;;;;;12.35;3.53;;;15.50;96.40;;;;;;5027906;28;20029;-69
2022/07/22 06:19:46;;;;;;;10.48;3.50;;;15.60;96.20;;;;;;5033205;28;20472;-69
2022/07/22 06:22:12;;;;;;;9.75;3.22;;;15.60;96.30;;;;;;5029344;28;20041;-69
2022/07/22 06:24:37;;;;;;;8.95;3.38;;;15.70;96.40;;;;;;5026079;28;20449;-69
2022/07/22 06:27:03;;;;;;;7.80;3.33;;;15.70;96.40;;;;;;5029448;28;20032;-69
2022/07/22 06:29:28;;;;;;;11.98;3.70;;;15.80;96.30;;;;;;5023829;28;20029;-69
2022/07/22 06:31:55;;;;;;;14.98;3.60;;;15.80;96.30;;;;;;5031225;28;20030;-69
2022/07/22 06:34:20;;;;;;;8.13;3.10;;;15.90;96.30;;;;;;5030341;28;20044;-69
2022/07/22 06:36:46;;;;;;;9.77;3.10;;;16.00;96.20;;;;;;5023993;28;20965;-69
2022/07/22 06:39:11;;;;;;;10.00;3.72;;;16.00;96.10;;;;;;5021138;28;20025;-69
2022/07/22 06:41:37;;;;;;;10.15;3.40;;;16.10;95.90;;;;;;5030658;28;20523;-69
2022/07/22 06:44:03;;;;;;;8.15;3.70;;;16.10;95.60;;;;;;5029071;28;20473;-69
2022/07/22 06:46:28;;;;;;;10.68;4.00;;;16.10;95.50;;;;;;5029725;28;20120;-69
2022/07/22 06:48:54;;;;;;;10.55;4.10;;;16.20;95.60;;;;;;5031345;28;20030;-69
2022/07/22 06:51:19;;;;;;;12.73;4.20;;;16.10;95.10;;;;;;5031139;28;20029;-69
2022/07/22 06:53:45;;;;;;;9.73;4.05;;;16.20;94.80;;;;;;5025221;28;20033;-69
2022/07/22 06:56:10;;;;;;;12.50;4.10;;;16.30;94.70;;;;;;5026477;28;20112;-69
2022/07/22 06:58:36;;;;;;;12.52;3.90;;;16.40;94.40;;;;;;5030734;28;20040;-69
2022/07/22 07:01:01;;;;;;;9.15;3.85;;;16.50;93.80;;;;;;5032796;28;20057;-69
2022/07/22 07:03:27;;;;;;;12.23;3.97;;;16.50;93.60;;;;;;5018458;28;20495;-69
2022/07/22 07:05:52;;;;;;;9.90;3.70;;;16.50;93.10;;;;;;5030325;28;20057;-69
2022/07/22 07:08:18;;;;;;;11.32;3.30;;;16.60;92.40;;;;;;5026246;28;20056;-69
2022/07/22 07:10:44;;;;;;;11.70;3.63;;;16.70;92.90;;;;;;5025617;28;20126;-69
2022/07/22 07:13:09;;;;;;;12.00;4.03;;;16.70;92.40;;;;;;5029415;28;20028;-69
2022/07/22 07:15:35;;;;;;;10.07;3.33;;;16.90;92.50;;;;;;5031650;28;20455;-69
2022/07/22 07:18:00;;;;;;;8.43;2.80;;;16.80;90.90;;;;;;5030074;28;20028;-68
2022/07/22 07:20:26;;;;;;;11.32;3.00;;;16.90;90.70;;;;;;5029183;28;20392;-69
2022/07/22 07:22:52;;;;;;;13.68;3.47;;;16.80;90.90;;;;;;5025865;28;20033;-69
2022/07/22 07:25:18;;;;;;;8.95;2.95;;;16.90;90.50;;;;;;5024303;28;20034;-69
2022/07/22 07:27:44;;;;;;;8.93;2.45;;;17.00;90.10;;;;;;5028376;28;20034;-69
2022/07/22 07:30:10;;;;;;;13.05;2.22;;;17.10;89.80;;;;;;5032155;28;20048;-69
2022/07/22 07:32:36;;;;;;;7.15;2.30;;;17.10;89.50;;;;;;5029281;28;20057;-69
2022/07/22 07:35:03;;;;;;;7.85;2.70;;;17.00;89.30;;;;;;5028381;28;20021;-69
2022/07/22 07:37:29;;;;;;;10.60;2.20;;;17.00;89.20;;;;;;5025963;28;20121;-69
2022/07/22 07:39:54;;;;;;;8.35;2.55;;;17.00;88.80;;;;;;5029839;28;20141;-69
2022/07/22 07:42:20;;;;;;;9.85;2.15;;;16.90;88.50;;;;;;5026570;28;20037;-69
2022/07/22 07:44:45;;;;;;;7.25;2.20;;;16.90;88.40;;;;;;5024206;28;20038;-69
2022/07/22 07:47:12;;;;;;;11.93;2.40;;;16.90;87.50;;;;;;5023889;28;20096;-69
2022/07/22 07:49:37;;;;;;;10.02;2.53;;;17.10;87.80;;;;;;5030927;28;20485;-69
2022/07/22 07:52:03;;;;;;;12.48;2.20;;;17.20;87.70;;;;;;5026541;28;20101;-69
2022/07/22 07:54:28;;;;;;;14.15;2.72;;;17.40;87.30;;;;;;5026280;28;20430;-69
2022/07/22 07:56:54;;;;;;;8.13;2.00;;;17.40;86.30;;;;;;5029380;28;20691;-69
2022/07/22 07:59:19;;;;;;;7.10;1.75;;;17.50;85.10;;;;;;5026500;28;20033;-69
2022/07/22 08:01:45;;;;;;;10.88;2.20;;;17.50;85.00;;;;;;5014497;28;20114;-69
2022/07/22 08:04:11;;;;;;;11.45;1.92;;;17.40;85.00;;;;;;5025798;28;20112;-69
2022/07/22 08:06:36;;;;;;;9.90;2.00;;;17.20;84.60;;;;;;5027000;28;20037;-69
2022/07/22 08:09:02;;;;;;;7.75;2.25;;;17.10;84.90;;;;;;5027885;28;20022;-69
2022/07/22 08:11:28;;;;;;;9.50;2.30;;;17.00;86.40;;;;;;5021408;28;20076;-69
2022/07/22 08:13:53;;;;;;;12.30;2.25;;;17.00;86.80;;;;;;5020453;28;20281;-69
2022/07/22 08:16:18;;;;;;;16.15;2.60;;;17.00;86.80;;;;;;5015222;28;20164;-69
2022/07/22 08:18:44;;;;;;;11.70;2.60;;;17.00;87.10;;;;;;5021968;28;20037;-69
2022/07/22 08:21:10;;;;;;;7.13;2.30;;;17.00;87.30;;;;;;5021840;28;20401;-69
2022/07/22 08:23:35;;;;;;;8.02;2.20;;;16.90;87.30;;;;;;5027184;28;20022;-69
2022/07/22 08:26:01;;;;;;;11.93;2.17;;;17.10;86.90;;;;;;5017658;28;20084;-69
2022/07/22 08:28:27;;;;;;;6.45;2.58;;;17.20;86.40;;;;;;5017775;28;20033;-69
2022/07/22 08:30:53;;;;;;;7.90;2.03;;;17.30;85.90;;;;;;5020147;28;20512;-70
2022/07/22 08:33:18;;;;;;;8.65;2.40;;;17.50;85.00;;;;;;5026494;28;20035;-69
2022/07/22 08:35:44;;;;;;;9.90;2.28;;;17.40;84.50;;;;;;5025215;28;20083;-69
2022/07/22 08:38:10;;;;;;;4.00;1.67;;;17.50;84.90;;;;;;5027696;28;20520;-69
2022/07/22 08:40:35;;;;;;;3.42;1.55;;;17.50;84.00;;;;;;5023268;28;20022;-69
2022/07/22 08:43:02;;;;;;;8.32;1.90;;;17.50;83.60;;;;;;5026401;28;20033;-69
2022/07/22 08:45:32;;;;;;;9.27;2.33;;;17.50;82.20;;;;;;5026482;28;20698;-69
2022/07/22 08:48:02;;;;;;;6.68;1.65;;;17.60;82.00;;;;;;5027003;28;20044;-69
2022/07/22 08:50:30;;;;;;;11.73;2.03;;;17.80;82.00;;;;;;5026543;28;20029;-69
2022/07/22 08:52:57;;;;;;;7.60;2.10;;;17.80;82.00;;;;;;5025583;28;20128;-69
2022/07/22 08:55:23;;;;;;;7.43;1.85;;;17.60;80.80;;;;;;5022260;28;20022;-69
2022/07/22 08:57:49;;;;;;;9.70;2.17;;;17.60;81.40;;;;;;5019342;28;20029;-69
2022/07/22 09:00:20;;;;;;;6.28;2.03;;;17.30;82.10;;;;;;5028518;28;20038;-69
2022/07/22 09:02:46;;;;;;;;;;;17.40;83.30;;;;;;5022973;28;20045;-69
2022/07/22 09:05:14;;;;;;;5.65;1.80;;;17.40;81.90;;;;;;5026229;28;19909;-69
2022/07/22 09:07:41;;;;;;;8.75;1.65;;;17.60;80.70;;;;;;5022487;28;20045;-69
2022/07/22 09:10:13;;;;;;;4.47;1.65;;;17.60;79.60;;;;;;5024861;28;20033;-69
2022/07/22 09:12:55;;;;;;;7.57;1.95;;;17.70;80.40;;;;;;5022269;28;20017;-69
2022/07/22 09:15:29;;;;;;;5.25;1.50;;;17.60;80.60;;;;;;5019051;28;20507;-69
2022/07/22 09:17:55;;;;;;;5.60;1.67;;;17.50;80.40;;;;;;5022949;28;20118;-69
2022/07/22 09:20:21;;;;;;;9.82;2.03;;;17.40;80.00;;;;;;5023643;28;20021;-68
2022/07/22 09:22:48;;;;;;;9.45;1.70;;;17.30;79.30;;;;;;5028979;28;20025;-69
2022/07/22 09:25:32;;;;;;;8.88;1.45;;;17.40;79.70;;;;;;5021109;28;20117;-69
2022/07/22 09:28:06;;;;;;;6.10;1.83;;;17.40;79.30;;;;;;5022733;28;20384;-69
2022/07/22 09:30:35;;;;;;;4.30;1.40;;;17.50;79.30;;;;;;5019683;28;20734;-69
2022/07/22 09:33:02;;;;;;;5.32;1.30;;;17.70;78.70;;;;;;5019015;28;20029;-69
2022/07/22 09:35:28;;;;;;;11.57;1.80;;;17.80;77.70;;;;;;5022103;28;20026;-69
2022/07/22 09:37:56;;;;;;;8.65;1.70;;;17.90;76.80;;;;;;5023693;28;20103;-69
2022/07/22 09:40:27;;;;;;;3.95;1.25;;;18.10;77.50;;;;;;5020670;28;20040;-68
2022/07/22 09:42:58;;;;;;;5.97;1.50;;;18.00;77.60;;;;;;5025173;28;20374;-68
2022/07/22 09:45:25;;;;;;;;;;;17.90;77.80;;;;;;5031019;28;20097;-68
2022/07/22 09:47:53;;;;;;;11.98;1.98;;;17.80;77.90;;;;;;5027556;28;19909;-68
2022/07/22 09:50:22;;;;;;;8.50;1.98;;;17.70;79.00;;;;;;5029360;28;20048;-68
2022/07/22 09:52:50;;;;;;;5.47;1.75;;;17.50;78.50;;;;;;5027983;28;20025;-68
2022/07/22 09:55:18;;;;;;;6.35;1.55;;;17.50;78.40;;;;;;5028238;28;20108;-68
2022/07/22 09:57:44;;;;;;;3.92;1.52;;;17.50;77.00;;;;;;5028917;28;20052;-69
2022/07/22 10:00:11;;;;;;;4.10;1.38;;;17.70;76.90;;;;;;5030009;28;20033;-68
2022/07/22 10:02:59;;;;;;;4.28;1.35;;;17.70;76.30;;;;;;5026823;28;20053;-68
2022/07/22 10:05:28;;;;;;;6.30;1.27;;;17.80;75.50;;;;;;5017947;28;20476;-68
2022/07/22 10:07:55;;;;;;;9.60;1.48;;;17.90;75.20;;;;;;5029994;28;20481;-69
2022/07/22 10:10:26;;;;;;;6.38;1.45;;;18.10;75.40;;;;;;5029075;28;20040;-68
2022/07/22 10:12:54;;;;;;;6.80;1.50;;;18.00;74.70;;;;;;5027289;28;20025;-68
2022/07/22 10:15:21;;;;;;;4.97;1.30;;;18.10;74.40;;;;;;5029682;28;20058;-68
2022/07/22 10:17:49;;;;;;;5.60;1.25;;;18.30;74.70;;;;;;5026465;28;20025;-68
2022/07/22 10:20:18;;;;;;;7.47;1.67;;;18.60;74.10;;;;;;5027751;28;20519;-69
2022/07/22 10:22:50;;;;;;;8.32;1.38;;;18.90;72.30;;;;;;5028801;28;20504;-69
2022/07/22 10:25:18;;;;;;;7.40;1.73;;;19.00;71.80;;;;;;5030177;28;20053;-69
2022/07/22 10:27:45;;;;;;;5.50;1.75;;;19.10;72.00;;;;;;5028508;28;20113;-69
2022/07/22 10:30:13;;;;;;;7.15;1.33;;;19.10;71.80;;;;;;5029470;28;20347;-69
2022/07/22 10:32:39;;;;;;;4.40;1.30;;;19.00;71.80;;;;;;5026556;28;20025;-69
2022/07/22 10:35:11;;;;;;;7.13;1.65;;;19.00;70.80;;;;;;5029587;28;20095;-69
2022/07/22 10:37:40;;;;;;;5.28;1.45;;;18.90;72.30;;;;;;5029659;28;20519;-69
2022/07/22 10:40:22;;;;;;;3.17;1.20;;;18.90;70.80;;;;;;5029911;28;20037;-69
2022/07/22 10:42:57;;;;;;;5.30;1.65;;;18.80;69.50;;;;;;5027856;28;20037;-69
2022/07/22 10:45:25;;;;;;;6.47;1.13;;;18.70;69.90;;;;;;5029223;28;20029;-68
2022/07/22 10:47:56;;;;;;;3.10;1.25;;;18.60;69.90;;;;;;5027341;28;20041;-68
2022/07/22 10:50:30;;;;;;;;;;;18.60;70.20;;;;;;5026508;28;20036;-68
2022/07/22 10:52:57;;;;;;;4.18;1.40;;;18.80;71.50;;;;;;5025384;28;19913;-68
2022/07/22 10:55:22;;;;;;;6.28;1.58;;;18.50;71.00;;;;;;5028195;28;20021;-69
2022/07/22 10:57:48;;;;;;;9.18;1.50;;;18.50;72.20;;;;;;5030397;28;20117;-68
2022/07/22 11:00:15;;;;;;;7.38;1.48;;;18.40;71.60;;;;;;5031639;28;20029;-68
2022/07/22 11:02:41;;;;;;;11.07;1.52;;;18.30;71.80;;;;;;5029885;28;20038;-68
2022/07/22 11:05:08;;;;;;;5.03;1.60;;;18.40;71.60;;;;;;5033887;28;20037;-68
2022/07/22 11:07:43;;;;;;;6.85;1.15;;;18.50;70.40;;;;;;5033065;28;20033;-68
2022/07/22 11:10:11;;;;;;;2.38;0.88;;;18.60;69.40;;;;;;5033507;28;20032;-68
2022/07/22 11:12:37;;;;;;;6.85;1.10;;;18.70;69.00;;;;;;5028020;28;20432;-69
2022/07/22 11:15:06;;;;;;;3.65;1.48;;;18.80;69.70;;;;;;5033599;28;20032;-68
2022/07/22 11:17:34;;;;;;;5.75;1.30;;;19.00;70.30;;;;;;5030661;28;20284;-68
2022/07/22 11:20:00;;;;;;;4.72;1.08;;;18.90;69.60;;;;;;5031342;28;20037;-68
2022/07/22 11:22:27;;;;;;;3.55;1.25;;;19.00;69.70;;;;;;5029321;28;20358;-68
2022/07/22 11:24:52;;;;;;;4.43;1.17;;;18.90;70.70;;;;;;5031111;28;20021;-69
2022/07/22 11:27:21;;;;;;;6.15;1.27;;;19.00;70.40;;;;;;5032348;28;20539;-68
2022/07/22 11:29:50;;;;;;;5.10;1.35;;;19.10;69.20;;;;;;5033427;28;20049;-68
2022/07/22 11:32:16;;;;;;;7.57;1.27;;;19.20;68.70;;;;;;5028172;28;20429;-68
2022/07/22 11:34:46;;;;;;;4.32;1.38;;;19.30;68.10;;;;;;5033370;28;20078;-68
2022/07/22 11:37:13;;;;;;;7.10;1.30;;;19.50;66.60;;;;;;5031553;28;20045;-68
2022/07/22 11:39:38;;;;;;;5.75;1.10;;;19.60;67.90;;;;;;5032601;28;20430;-68
2022/07/22 11:42:04;;;;;;;4.93;1.02;;;19.70;66.00;;;;;;5025014;28;20124;-69
2022/07/22 11:44:33;;;;;;;5.47;1.55;;;19.80;66.60;;;;;;5033059;28;20068;-68
2022/07/22 11:46:59;;;;;;;5.47;1.30;;;19.90;66.80;;;;;;5029898;28;20025;-69
2022/07/22 11:49:28;;;;;;;2.15;0.85;;;19.70;65.20;;;;;;5031975;28;20026;-69
2022/07/22 11:51:53;;;;;;;1.33;0.82;;;20.00;67.50;;;;;;5027240;28;20025;-69
2022/07/22 11:54:19;;;;;;;7.03;1.30;;;20.00;65.60;;;;;;5032611;28;20484;-69
2022/07/22 11:56:45;;;;;;;2.97;0.90;;;20.30;65.00;;;;;;5029662;28;20431;-69
2022/07/22 11:59:17;;;;;;;2.75;1.00;;;20.50;64.90;;;;;;5029462;28;20071;-69
2022/07/22 12:01:43;;;;;;;3.45;1.10;;;20.40;63.60;;;;;;5029408;28;20026;-69
2022/07/22 12:04:12;;;;;;;3.50;0.90;;;20.40;62.10;;;;;;5032711;28;20030;-69
2022/07/22 12:06:41;;;;;;;2.42;1.00;;;20.40;62.80;;;;;;5032045;28;20483;-68
2022/07/22 12:09:19;;;;;;;3.17;1.00;;;20.30;63.90;;;;;;5028268;28;20038;-68
2022/07/22 12:11:51;;;;;;;6.55;1.15;;;20.00;64.90;;;;;;5030855;28;20091;-68
2022/07/22 12:14:19;;;;;;;3.47;1.08;;;20.20;65.30;;;;;;5032550;28;20026;-68
2022/07/22 12:16:54;;;;;;;2.38;0.93;;;20.60;64.70;;;;;;5028971;28;20065;-69
2022/07/22 12:19:20;;;;;;;5.20;1.23;;;20.70;61.30;;;;;;5029955;28;20138;-69
2022/07/22 12:21:55;;;;;;;5.05;1.10;;;20.80;61.90;;;;;;5029564;28;20038;-69
2022/07/22 12:24:32;;;;;;;3.92;1.05;;;21.20;62.10;;;;;;5025940;28;20057;-69
2022/07/22 12:27:04;;;;;;;2.95;0.90;;;21.20;61.70;;;;;;5029789;28;20045;-69
2022/07/22 12:29:31;;;;;;;4.65;1.00;;;20.70;60.80;;;;;;5029312;28;21351;-69
2022/07/22 12:31:59;;;;;;;4.53;1.20;;;20.50;61.70;;;;;;5029189;28;20029;-69
2022/07/22 12:34:31;;;;;;;6.10;1.50;;;20.40;63.60;;;;;;5032000;28;20380;-68
2022/07/22 12:36:56;;;;;;;2.65;1.00;;;20.30;63.30;;;;;;5029225;28;20056;-69
2022/07/22 12:39:22;;;;;;;6.35;1.35;;;20.40;63.20;;;;;;5031390;28;20029;-68